SCSK weather

Colorado Airport
San Clemente, Maule Region, Chile

Public forecast

Using degrees Celsius for public forecast. Weather courtesy of forecast.io.

METAR (pilot weather report)

Closest report is General Freire Airport, 42.0 nm (77.8 km) N. Retrieved 2019/05/22 08:00 UTC (7 minutes ago):

SCIC 220800Z AUTO VRB02KT 9999 NCD 02/02 Q1020

TAF (pilot weather forecast)

Closest forecast is Carriel Sur Airport, 108.2 nm (200.3 km) SW. Retrieved 2019/05/22 06:00 UTC (2 hours ago):

TAF SCIE 220416Z 2206/2306 14004KT CAVOK TX15/2218Z TN03/2211Z TEMPO 2209/2212 VRB02KT 5000 BR NSC BECMG 2216/2218 16013KT TEMPO 2220/2300 25006KT BECMG 2302/2304 09004KT